Tilford, South Dakota
Current Conditions -  °F | °C
As of 10:58 PM on Friday 24 Oct 2014 (Local Time) from KRCA Reporting Station
Clear Clear  
Wind Chill:   Ceiling: Unl
Heat Index:   Visibility: 7mi
Dew Point:   Wind: 7mph
Humidity: 58%   Direction: 320°NW
Pressure: 30.12"   Gusts: NA
Location:  44.2544°N, 103.292°W
Report Text: KRCA 250458Z AUTO 32006KT 7SM CLR 09/01 A3012 RMK AO2 SLP197 T00860008 $
Loading
Personal Weather Stations






























Interactive Weather Map
Tropical Storm Tracking
New forecast layout! Learn more

10-Day Weather Forecast

Advertisements
Track Severe Weather on mobile